Terminal Aerodrome Forecast
Issued by NWS

Home | Current Version | Previous Version | Graphics & Text | Print | Product List | Glossary On
Versions: 1 2 3 4 5 6 7 8 9 10 11 12 13 14 15 16 17
000
FTUS43 KGRB 180300 AAA
TAFATW
TAF AMD
KATW 180325Z 1803/1824 04010G18KT P6SM SCT015 SCT050
      TEMPO 1803/1807 BKN015
     FM180700 03010G16KT P6SM SCT015 BKN030
     FM181000 04009KT P6SM SCT020
     FM181600 06007KT P6SM SCT025 SCT050=

USA.gov is the U.S. government's official web portal to all federal, state and local government web resources and services.